createdAt,value
2023-01-31T00:00:55.748Z,97842.72
2023-01-31T00:03:26.449Z,97852.91
2023-01-31T00:05:56.797Z,97844.28
2023-01-31T00:08:29.863Z,97839.56
2023-01-31T00:11:02.436Z,97835.00
2023-01-31T00:13:33.041Z,97839.72
2023-01-31T00:16:03.677Z,97838.81
2023-01-31T00:18:34.882Z,97843.31
2023-01-31T00:21:11.118Z,97845.03
2023-01-31T00:23:46.234Z,97862.94
2023-01-31T00:26:20.366Z,97859.91
2023-01-31T00:28:52.799Z,97857.03
2023-01-31T00:31:24.976Z,97861.59
2023-01-31T00:33:56.995Z,97873.31
2023-01-31T00:36:30.281Z,97869.53
2023-01-31T00:39:06.840Z,97886.44
2023-01-31T00:41:39.426Z,97897.03
2023-01-31T00:44:10.548Z,97882.25
2023-01-31T00:46:42.121Z,97891.28
2023-01-31T00:49:12.634Z,97904.75
2023-01-31T00:51:43.067Z,97897.59
2023-01-31T00:54:16.054Z,97892.47
2023-01-31T00:56:46.434Z,97891.34
2023-01-31T00:59:17.008Z,97895.78
2023-01-31T01:01:47.620Z,97901.16
2023-01-31T01:04:18.106Z,97906.13
2023-01-31T01:06:50.531Z,97898.00
2023-01-31T01:09:23.718Z,97906.75
2023-01-31T01:11:54.605Z,97911.16
2023-01-31T01:14:25.202Z,97911.03
2023-01-31T01:16:58.430Z,97916.50
2023-01-31T01:19:29.149Z,97913.38
2023-01-31T01:21:59.582Z,97907.47
2023-01-31T01:24:32.984Z,97914.06
2023-01-31T01:27:06.701Z,97922.69
2023-01-31T01:29:37.181Z,97924.53
2023-01-31T01:32:08.756Z,97918.91
2023-01-31T01:34:39.383Z,97923.75
2023-01-31T01:37:20.162Z,97935.72
2023-01-31T01:39:54.207Z,97938.44
2023-01-31T01:42:27.747Z,97953.22
2023-01-31T01:45:00.629Z,97941.50
2023-01-31T01:47:40.400Z,97938.50
2023-01-31T01:50:17.724Z,97928.94
2023-01-31T01:52:53.851Z,97923.16
2023-01-31T01:55:36.351Z,97928.63
2023-01-31T01:58:14.094Z,97931.16
2023-01-31T02:00:46.061Z,97936.63
2023-01-31T02:03:18.100Z,97943.06
2023-01-31T02:05:52.632Z,97951.00
2023-01-31T02:08:26.783Z,97950.31
2023-01-31T02:11:05.710Z,97960.09
2023-01-31T02:13:36.476Z,97956.59
2023-01-31T02:16:07.322Z,97968.59
2023-01-31T02:18:38.119Z,97969.25
2023-01-31T02:22:01.321Z,97979.03
2023-01-31T02:25:22.702Z,97988.28
2023-01-31T02:28:40.393Z,97980.56
2023-01-31T02:31:55.086Z,97995.53
2023-01-31T02:34:40.643Z,97988.22
2023-01-31T02:37:23.382Z,97991.72
2023-01-31T02:40:04.375Z,98006.56
2023-01-31T02:42:48.966Z,97999.75
2023-01-31T02:45:27.888Z,98005.97
2023-01-31T02:48:12.945Z,98011.44
2023-01-31T02:51:00.880Z,98005.72
2023-01-31T02:53:37.573Z,98023.16
2023-01-31T02:56:15.068Z,98024.34
2023-01-31T02:58:49.490Z,98022.41
2023-01-31T03:01:28.065Z,98029.03
2023-01-31T03:04:01.782Z,98031.06
2023-01-31T03:07:00.318Z,98044.75
2023-01-31T03:09:44.332Z,98033.81
2023-01-31T03:12:41.333Z,98035.09
2023-01-31T03:15:56.780Z,98047.22
2023-01-31T03:18:32.686Z,98044.75
2023-01-31T03:21:11.430Z,98035.69
2023-01-31T03:23:47.230Z,98055.22
2023-01-31T03:26:20.391Z,98047.50
2023-01-31T03:28:57.254Z,98069.38
2023-01-31T03:31:33.047Z,98059.94
2023-01-31T03:34:11.542Z,98073.16
2023-01-31T03:36:50.070Z,98081.25
2023-01-31T03:39:41.933Z,98078.50
2023-01-31T03:42:22.507Z,98087.75
2023-01-31T03:45:02.015Z,98070.78
2023-01-31T03:47:38.792Z,98083.22
2023-01-31T03:50:17.535Z,98098.13
2023-01-31T03:52:55.529Z,98096.59
2023-01-31T03:55:38.759Z,98085.59
2023-01-31T03:58:11.554Z,98088.75
2023-01-31T04:00:46.547Z,98086.00
2023-01-31T04:03:23.796Z,98085.16
2023-01-31T04:05:54.381Z,98094.53
2023-01-31T04:08:25.652Z,98090.19
2023-01-31T04:11:07.927Z,98085.81
2023-01-31T04:13:38.508Z,98082.69
2023-01-31T04:16:11.259Z,98083.50
2023-01-31T04:18:41.684Z,98082.63
2023-01-31T04:21:12.107Z,98084.25
2023-01-31T04:23:42.408Z,98079.59
2023-01-31T04:26:15.323Z,98079.28
2023-01-31T04:28:45.662Z,98089.34
2023-01-31T04:31:16.094Z,98088.16
2023-01-31T04:33:46.587Z,98088.53
2023-01-31T04:36:16.959Z,98093.16
2023-01-31T04:38:47.292Z,98083.06
2023-01-31T04:41:20.430Z,98085.81
2023-01-31T04:43:50.765Z,98079.09
2023-01-31T04:46:21.514Z,98078.69
2023-01-31T04:48:51.948Z,98076.81
2023-01-31T04:51:22.422Z,98079.41
2023-01-31T04:53:52.732Z,98084.47
2023-01-31T04:56:25.819Z,98083.00
2023-01-31T04:58:56.139Z,98096.28
2023-01-31T05:01:26.894Z,98089.16
2023-01-31T05:03:57.312Z,98094.72
2023-01-31T05:06:27.628Z,98085.56
2023-01-31T05:09:01.469Z,98092.19
2023-01-31T05:11:34.446Z,98101.19
2023-01-31T05:14:04.945Z,98094.44
2023-01-31T05:16:35.317Z,98100.28
2023-01-31T05:19:05.729Z,98100.28
2023-01-31T05:21:55.027Z,98101.84
2023-01-31T05:24:25.582Z,98109.34
2023-01-31T05:27:01.310Z,98123.03
2023-01-31T05:29:34.089Z,98114.91
2023-01-31T05:32:05.998Z,98118.78
2023-01-31T05:34:36.298Z,98116.09
2023-01-31T05:37:07.177Z,98120.63
2023-01-31T05:39:37.621Z,98116.81
2023-01-31T05:42:10.578Z,98126.97
2023-01-31T05:44:40.969Z,98123.84
2023-01-31T05:47:11.309Z,98110.16
2023-01-31T05:49:41.796Z,98117.59
2023-01-31T05:52:12.108Z,98122.72
2023-01-31T05:54:42.375Z,98126.75
2023-01-31T05:57:15.978Z,98115.13
2023-01-31T05:59:46.415Z,98114.66
2023-01-31T06:02:17.087Z,98117.28
2023-01-31T06:04:47.400Z,98115.03
2023-01-31T06:07:17.847Z,98120.03
2023-01-31T06:09:48.500Z,98124.78
2023-01-31T06:12:21.497Z,98120.97
2023-01-31T06:15:19.130Z,98127.53
2023-01-31T06:17:49.709Z,98132.13
2023-01-31T06:20:20.360Z,98145.72
2023-01-31T06:22:50.695Z,98148.88
2023-01-31T06:25:21.657Z,98138.59
2023-01-31T06:27:54.749Z,98138.00
2023-01-31T06:30:25.338Z,98145.72
2023-01-31T06:32:56.411Z,98148.09
2023-01-31T06:35:26.935Z,98149.81
2023-01-31T06:37:58.716Z,98149.72
2023-01-31T06:40:29.388Z,98145.78
2023-01-31T06:43:02.849Z,98141.91
2023-01-31T06:45:33.345Z,98134.88
2023-01-31T06:48:03.620Z,98149.66
2023-01-31T06:50:34.026Z,98155.91
2023-01-31T06:53:04.280Z,98151.91
2023-01-31T06:55:34.616Z,98157.03
2023-01-31T06:58:07.511Z,98149.91
2023-01-31T07:00:37.885Z,98158.94
2023-01-31T07:03:08.201Z,98159.78
2023-01-31T07:05:38.543Z,98169.19
2023-01-31T07:08:09.300Z,98164.38
2023-01-31T07:10:39.811Z,98160.50
2023-01-31T07:13:12.842Z,98154.25
2023-01-31T07:15:43.236Z,98166.25
2023-01-31T07:18:13.522Z,98163.03
2023-01-31T07:20:43.921Z,98158.50
2023-01-31T07:23:14.207Z,98170.13
2023-01-31T07:25:44.564Z,98167.78
2023-01-31T07:28:17.740Z,98171.00
2023-01-31T07:30:48.665Z,98172.81
2023-01-31T07:33:19.096Z,98171.00
2023-01-31T07:35:49.729Z,98161.09
2023-01-31T07:38:20.205Z,98164.91
2023-01-31T07:40:50.452Z,98154.09
2023-01-31T07:43:23.788Z,98168.25
2023-01-31T07:45:54.125Z,98173.16
2023-01-31T07:48:24.785Z,98160.19
2023-01-31T07:50:56.300Z,98168.81
2023-01-31T07:53:26.667Z,98164.91
2023-01-31T07:55:57.509Z,98171.56
2023-01-31T07:58:30.666Z,98185.56
2023-01-31T08:01:13.500Z,98166.09
2023-01-31T08:03:43.849Z,98174.00
2023-01-31T08:06:16.068Z,98166.44
2023-01-31T08:08:48.212Z,98171.66
2023-01-31T08:11:18.551Z,98169.34
2023-01-31T08:13:51.469Z,98169.47
2023-01-31T08:16:21.952Z,98177.91
2023-01-31T08:18:53.037Z,98184.09
2023-01-31T08:21:23.674Z,98184.94
2023-01-31T08:23:54.085Z,98192.44
2023-01-31T08:26:25.972Z,98188.34
2023-01-31T08:29:00.235Z,98191.13
2023-01-31T08:31:31.803Z,98191.78
2023-01-31T08:34:03.313Z,98185.56
2023-01-31T08:36:35.895Z,98184.88
2023-01-31T08:39:07.741Z,98190.72
2023-01-31T08:41:39.496Z,98182.31
2023-01-31T08:44:12.437Z,98177.31
2023-01-31T08:46:42.943Z,98178.66
2023-01-31T08:49:13.367Z,98175.88
2023-01-31T08:51:45.308Z,98181.66
2023-01-31T08:54:16.337Z,98179.22
2023-01-31T08:56:46.684Z,98187.41
2023-01-31T08:59:19.700Z,98177.63
2023-01-31T09:01:50.009Z,98180.84
2023-01-31T09:04:20.401Z,98173.66
2023-01-31T09:06:50.683Z,98163.19
2023-01-31T09:09:21.278Z,98171.25
2023-01-31T09:11:51.631Z,98167.56
2023-01-31T09:14:24.605Z,98174.69
2023-01-31T09:16:54.946Z,98166.63
2023-01-31T09:19:25.591Z,98163.53
2023-01-31T09:21:56.265Z,98159.50
2023-01-31T09:24:26.679Z,98151.75
2023-01-31T09:26:57.346Z,98169.81
2023-01-31T09:29:31.025Z,98154.22
2023-01-31T09:32:01.437Z,98143.09
2023-01-31T09:34:32.201Z,98147.03
2023-01-31T09:37:02.647Z,98141.53
2023-01-31T09:39:33.267Z,98137.06
2023-01-31T09:42:19.769Z,98141.78
2023-01-31T09:45:02.550Z,98128.28
2023-01-31T09:47:37.352Z,98123.47
2023-01-31T09:50:18.043Z,98120.75
2023-01-31T09:52:49.103Z,98131.72
2023-01-31T09:55:22.230Z,98130.66
2023-01-31T09:58:02.638Z,98125.38
2023-01-31T10:00:40.803Z,98127.13
2023-01-31T10:03:31.805Z,98125.22
2023-01-31T10:06:10.393Z,98125.50
2023-01-31T10:08:51.255Z,98128.06
2023-01-31T10:11:34.987Z,98124.69
2023-01-31T10:14:24.139Z,98123.06
2023-01-31T10:17:08.284Z,98115.13
2023-01-31T10:19:48.461Z,98114.13
2023-01-31T10:22:25.195Z,98112.78
2023-01-31T10:25:03.503Z,98102.06
2023-01-31T10:27:45.459Z,98097.69
2023-01-31T10:30:22.273Z,98088.41
2023-01-31T10:33:03.891Z,98086.75
2023-01-31T10:35:37.355Z,98098.28
2023-01-31T10:38:17.176Z,98082.31
2023-01-31T10:40:53.401Z,98075.47
2023-01-31T10:43:32.911Z,98076.75
2023-01-31T10:46:03.948Z,98074.47
2023-01-31T10:48:37.018Z,98067.97
2023-01-31T10:51:24.487Z,98071.19
2023-01-31T10:54:14.555Z,98049.63
2023-01-31T10:56:49.124Z,98049.91
2023-01-31T10:59:27.041Z,98041.47
2023-01-31T11:01:58.640Z,98040.59
2023-01-31T11:04:35.208Z,98046.81
2023-01-31T11:07:07.068Z,98053.03
2023-01-31T11:09:41.365Z,98052.38
2023-01-31T11:12:12.340Z,98049.00
2023-01-31T11:14:42.762Z,98032.13
2023-01-31T11:17:20.902Z,98040.28
2023-01-31T11:19:56.099Z,98021.47
2023-01-31T11:22:29.606Z,98021.22
2023-01-31T11:25:04.181Z,98010.25
2023-01-31T11:27:41.503Z,98013.19
2023-01-31T11:30:26.274Z,98015.84
2023-01-31T11:32:56.892Z,98011.22
2023-01-31T11:35:33.117Z,97999.44
2023-01-31T11:38:06.977Z,97999.28
2023-01-31T11:40:39.791Z,98002.97
2023-01-31T11:43:28.648Z,97995.75
2023-01-31T11:46:02.574Z,97999.59
2023-01-31T11:48:43.492Z,97981.53
2023-01-31T11:51:31.027Z,97962.16
2023-01-31T11:54:01.412Z,97950.06
2023-01-31T11:56:38.230Z,97942.59
2023-01-31T11:59:10.874Z,97960.28
2023-01-31T12:01:49.864Z,97956.41
2023-01-31T12:04:25.032Z,97957.78
2023-01-31T12:07:05.300Z,97965.06
2023-01-31T12:09:46.695Z,97964.81
2023-01-31T12:12:31.347Z,97964.47
2023-01-31T12:15:07.966Z,97955.97
2023-01-31T12:17:47.700Z,97950.06
2023-01-31T12:20:39.896Z,97919.72
2023-01-31T12:23:26.559Z,97940.19
2023-01-31T12:26:10.297Z,97916.88
2023-01-31T12:28:59.695Z,97923.97
2023-01-31T12:31:58.445Z,97913.03
2023-01-31T12:35:00.747Z,97924.56
2023-01-31T12:37:45.296Z,97906.09
2023-01-31T12:40:42.881Z,97905.09
2023-01-31T12:43:33.783Z,97901.44
2023-01-31T12:46:15.834Z,97895.19
2023-01-31T12:49:11.476Z,97863.88
2023-01-31T12:51:51.599Z,97880.16
2023-01-31T12:54:41.916Z,97871.72
2023-01-31T12:57:31.205Z,97869.31
2023-01-31T13:00:28.903Z,97864.47
2023-01-31T13:03:35.777Z,97848.78
2023-01-31T13:06:15.543Z,97831.91
2023-01-31T13:09:06.884Z,97840.19
2023-01-31T13:11:44.945Z,97827.31
2023-01-31T13:14:24.478Z,97829.81
2023-01-31T13:17:00.320Z,97821.88
2023-01-31T13:19:37.951Z,97830.03
2023-01-31T13:22:14.717Z,97809.88
2023-01-31T13:24:50.454Z,97798.63
2023-01-31T13:27:29.280Z,97799.94
2023-01-31T13:30:09.195Z,97800.94
2023-01-31T13:32:44.972Z,97797.00
2023-01-31T13:35:24.938Z,97777.56
2023-01-31T13:38:01.024Z,97775.97
2023-01-31T13:40:35.409Z,97780.25
2023-01-31T13:43:15.852Z,97769.03
2023-01-31T13:45:53.859Z,97769.09
2023-01-31T13:48:30.984Z,97766.84
2023-01-31T13:51:06.491Z,97775.50
2023-01-31T13:53:45.836Z,97757.63
2023-01-31T13:56:25.893Z,97749.56
2023-01-31T13:58:59.037Z,97745.06
2023-01-31T14:01:37.771Z,97732.22
2023-01-31T14:04:29.145Z,97735.31
2023-01-31T14:07:25.808Z,97734.88
2023-01-31T14:10:40.938Z,97738.81
2023-01-31T14:13:40.571Z,97736.75
2023-01-31T14:16:46.203Z,97732.88
2023-01-31T14:20:05.116Z,97738.31
2023-01-31T14:22:38.915Z,97746.50
2023-01-31T14:25:17.082Z,97737.03
2023-01-31T14:28:04.265Z,97745.22
2023-01-31T14:30:43.432Z,97754.13
2023-01-31T14:33:27.035Z,97749.34
2023-01-31T14:36:36.639Z,97761.09
2023-01-31T14:39:44.957Z,97766.72
2023-01-31T14:43:03.957Z,97753.06
2023-01-31T14:46:09.113Z,97747.22
2023-01-31T14:49:10.493Z,97737.50
2023-01-31T14:52:01.812Z,97751.59
2023-01-31T14:55:01.250Z,97752.78
2023-01-31T14:57:36.946Z,97761.91
2023-01-31T15:00:10.258Z,97760.44
2023-01-31T15:02:51.286Z,97749.66
2023-01-31T15:05:42.006Z,97762.56
2023-01-31T15:08:44.542Z,97765.38
2023-01-31T15:11:43.033Z,97748.28
2023-01-31T15:14:34.717Z,97764.69
2023-01-31T15:17:32.052Z,97760.47
2023-01-31T15:20:21.251Z,97754.78
2023-01-31T15:22:59.006Z,97759.84
2023-01-31T15:25:36.685Z,97753.59
2023-01-31T15:28:08.496Z,97749.75
2023-01-31T15:30:40.802Z,97758.63
2023-01-31T15:33:19.115Z,97750.94
2023-01-31T15:35:55.602Z,97769.28
2023-01-31T15:38:35.221Z,97741.94
2023-01-31T15:41:13.808Z,97740.84
2023-01-31T15:43:44.196Z,97762.22
2023-01-31T15:46:24.800Z,97762.63
2023-01-31T15:48:55.541Z,97753.03
2023-01-31T15:51:26.723Z,97770.34
2023-01-31T15:54:10.250Z,97757.63
2023-01-31T15:56:43.655Z,97769.06
2023-01-31T15:59:16.957Z,97760.81
2023-01-31T16:01:51.360Z,97750.97
2023-01-31T16:04:22.045Z,97759.91
2023-01-31T16:06:54.021Z,97750.16
2023-01-31T16:09:34.377Z,97750.94
2023-01-31T16:12:05.759Z,97754.00
2023-01-31T16:14:38.015Z,97748.34
2023-01-31T16:17:08.572Z,97747.50
2023-01-31T16:19:38.958Z,97750.66
2023-01-31T16:22:27.099Z,97764.88
2023-01-31T16:25:02.929Z,97773.44
2023-01-31T16:27:39.590Z,97775.25
2023-01-31T16:30:18.909Z,97746.88
2023-01-31T16:32:51.623Z,97766.50
2023-01-31T16:35:27.072Z,97775.75
2023-01-31T16:38:07.075Z,97781.91
2023-01-31T16:40:49.023Z,97763.97
2023-01-31T16:43:27.630Z,97775.63
2023-01-31T16:46:01.634Z,97751.75
2023-01-31T16:48:34.641Z,97746.50
2023-01-31T16:51:43.640Z,97752.75
2023-01-31T16:54:24.478Z,97754.47
2023-01-31T16:57:24.833Z,97741.16
2023-01-31T16:59:56.802Z,97750.13
2023-01-31T17:02:32.892Z,97750.81
2023-01-31T17:05:12.832Z,97753.91
2023-01-31T17:07:48.978Z,97754.34
2023-01-31T17:10:26.857Z,97769.34
2023-01-31T17:13:05.187Z,97760.69
2023-01-31T17:15:35.815Z,97769.25
2023-01-31T17:18:06.422Z,97768.41
2023-01-31T17:20:36.785Z,97774.72
2023-01-31T17:23:07.522Z,97762.84
2023-01-31T17:25:39.303Z,97774.78
2023-01-31T17:28:13.942Z,97769.13
2023-01-31T17:30:46.545Z,97778.81
2023-01-31T17:33:18.185Z,97770.94
2023-01-31T17:35:50.093Z,97783.84
2023-01-31T17:38:21.034Z,97780.25
2023-01-31T17:40:53.141Z,97768.69
2023-01-31T17:43:26.314Z,97769.63
2023-01-31T17:45:56.743Z,97768.94
2023-01-31T17:48:27.243Z,97765.00
2023-01-31T17:50:57.822Z,97754.75
2023-01-31T17:53:32.145Z,97766.38
2023-01-31T17:56:05.568Z,97758.16
2023-01-31T17:58:38.675Z,97747.97
2023-01-31T18:01:14.057Z,97747.81
2023-01-31T18:03:45.169Z,97748.94
2023-01-31T18:06:15.775Z,97752.72
2023-01-31T18:08:46.209Z,97746.13
2023-01-31T18:11:19.302Z,97736.09
2023-01-31T18:13:52.309Z,97744.25
2023-01-31T18:16:26.029Z,97754.34
2023-01-31T18:18:58.219Z,97762.72
2023-01-31T18:21:28.780Z,97755.09
2023-01-31T18:24:01.750Z,97744.47
2023-01-31T18:26:32.536Z,97743.69
2023-01-31T18:29:05.825Z,97720.19
2023-01-31T18:31:36.461Z,97734.22
2023-01-31T18:34:07.101Z,97733.53
2023-01-31T18:36:37.483Z,97718.22
2023-01-31T18:39:07.887Z,97723.28
2023-01-31T18:41:38.291Z,97719.66
2023-01-31T18:44:11.648Z,97730.28
2023-01-31T18:46:42.114Z,97736.97
2023-01-31T18:49:12.625Z,97728.03
2023-01-31T18:51:43.042Z,97733.78
2023-01-31T18:54:13.499Z,97723.59
2023-01-31T18:56:44.828Z,97724.06
2023-01-31T18:59:17.765Z,97713.41
2023-01-31T19:01:48.196Z,97701.38
2023-01-31T19:04:18.491Z,97704.63
2023-01-31T19:06:51.455Z,97701.38
2023-01-31T19:09:22.599Z,97713.69
2023-01-31T19:11:53.043Z,97719.84
2023-01-31T19:14:26.021Z,97720.53
2023-01-31T19:16:58.280Z,97714.97
2023-01-31T19:19:29.167Z,97711.13
2023-01-31T19:21:59.533Z,97717.19
2023-01-31T19:24:30.174Z,97700.84
2023-01-31T19:27:00.564Z,97704.59
2023-01-31T19:29:33.509Z,97713.84
2023-01-31T19:32:03.950Z,97699.88
2023-01-31T19:34:36.443Z,97696.34
2023-01-31T19:37:06.964Z,97695.16
2023-01-31T19:39:37.627Z,97703.38
2023-01-31T19:42:08.742Z,97707.78
2023-01-31T19:44:41.739Z,97706.13
2023-01-31T19:47:12.096Z,97702.97
2023-01-31T19:49:42.400Z,97704.94
2023-01-31T19:52:12.846Z,97704.56
2023-01-31T19:54:43.251Z,97702.72
2023-01-31T19:57:13.699Z,97707.00
2023-01-31T19:59:47.029Z,97701.84
2023-01-31T20:02:17.512Z,97734.56
2023-01-31T20:04:48.111Z,97719.06
2023-01-31T20:07:18.500Z,97697.41
2023-01-31T20:09:48.767Z,97707.16
2023-01-31T20:12:19.140Z,97711.34
2023-01-31T20:14:52.096Z,97696.19
2023-01-31T20:17:25.204Z,97677.53
2023-01-31T20:19:55.598Z,97695.69
2023-01-31T20:22:25.935Z,97692.06
2023-01-31T20:24:57.225Z,97685.94
2023-01-31T20:27:27.978Z,97686.28
2023-01-31T20:30:00.978Z,97688.25
2023-01-31T20:32:31.291Z,97684.31
2023-01-31T20:35:02.057Z,97673.66
2023-01-31T20:37:33.603Z,97688.13
2023-01-31T20:40:04.029Z,97682.66
2023-01-31T20:42:35.830Z,97680.03
2023-01-31T20:45:10.893Z,97674.28
2023-01-31T20:47:41.262Z,97683.47
2023-01-31T20:50:13.722Z,97678.41
2023-01-31T20:52:44.049Z,97677.22
2023-01-31T20:55:16.372Z,97679.53
2023-01-31T20:57:50.040Z,97692.69
2023-01-31T21:00:25.259Z,97690.56
2023-01-31T21:02:55.573Z,97684.38
2023-01-31T21:05:25.980Z,97702.19
2023-01-31T21:07:56.425Z,97709.88
2023-01-31T21:10:28.878Z,97689.94
2023-01-31T21:12:59.220Z,97699.94
2023-01-31T21:15:32.274Z,97698.41
2023-01-31T21:18:02.651Z,97730.50
2023-01-31T21:20:33.026Z,97713.41
2023-01-31T21:23:03.331Z,97729.25
2023-01-31T21:25:34.015Z,97724.94
2023-01-31T21:28:04.697Z,97728.41
2023-01-31T21:30:39.286Z,97730.59
2023-01-31T21:33:09.610Z,97736.44
2023-01-31T21:35:40.057Z,97731.81
2023-01-31T21:38:10.430Z,97726.69
2023-01-31T21:40:40.885Z,97739.06
2023-01-31T21:43:08.594Z,97722.63
2023-01-31T21:45:44.471Z,97731.09
2023-01-31T21:48:27.615Z,97733.06
2023-01-31T21:50:58.990Z,97732.22
2023-01-31T21:53:29.416Z,97726.63
2023-01-31T21:56:04.397Z,97722.03
2023-01-31T21:58:35.186Z,97740.78
2023-01-31T22:01:10.514Z,97731.59
2023-01-31T22:03:42.715Z,97734.69
2023-01-31T22:06:16.712Z,97723.53
2023-01-31T22:08:47.330Z,97723.84
2023-01-31T22:11:18.399Z,97714.78
2023-01-31T22:13:53.156Z,97723.00
2023-01-31T22:16:27.912Z,97721.44
2023-01-31T22:18:58.450Z,97721.94
2023-01-31T22:21:31.394Z,97727.75
2023-01-31T22:24:04.201Z,97711.53
2023-01-31T22:26:37.612Z,97723.84
2023-01-31T22:29:10.759Z,97715.53
2023-01-31T22:31:43.910Z,97716.28
2023-01-31T22:34:17.795Z,97717.81
2023-01-31T22:36:48.155Z,97706.59
2023-01-31T22:39:18.720Z,97713.22
2023-01-31T22:41:49.049Z,97699.16
2023-01-31T22:44:19.341Z,97687.41
2023-01-31T22:46:52.321Z,97691.69
2023-01-31T22:49:22.980Z,97695.97
2023-01-31T22:51:53.401Z,97696.63
2023-01-31T22:54:23.898Z,97687.06
2023-01-31T22:56:54.262Z,97688.84
2023-01-31T22:59:24.854Z,97683.88
2023-01-31T23:01:57.799Z,97678.28
2023-01-31T23:04:28.200Z,97693.88
2023-01-31T23:06:58.509Z,97701.88
2023-01-31T23:09:28.808Z,97700.38
2023-01-31T23:11:59.085Z,97694.56
2023-01-31T23:14:29.441Z,97696.34
2023-01-31T23:17:14.711Z,97699.88
2023-01-31T23:19:45.055Z,97708.72
2023-01-31T23:22:17.840Z,97711.91
2023-01-31T23:24:48.069Z,97700.09
2023-01-31T23:27:18.447Z,97703.59
2023-01-31T23:29:48.772Z,97709.53
2023-01-31T23:32:21.818Z,97709.06
2023-01-31T23:34:52.911Z,97709.88
2023-01-31T23:37:23.571Z,97713.81
2023-01-31T23:39:54.209Z,97721.31
2023-01-31T23:42:24.655Z,97705.38
2023-01-31T23:44:55.053Z,97710.09
2023-01-31T23:47:28.027Z,97714.75
2023-01-31T23:49:58.340Z,97701.56
2023-01-31T23:52:28.842Z,97714.72
2023-01-31T23:54:59.267Z,97722.38
2023-01-31T23:57:29.700Z,97727.75
